sensor_id;sensor_type;location;lat;lon;timestamp;temperature;humidity
9385;DHT22;4732;49.340;10.886;2023-06-26T03:01:04;14.70;99.90
9385;DHT22;4732;49.340;10.886;2023-06-26T03:03:30;14.80;99.90
9385;DHT22;4732;49.340;10.886;2023-06-26T03:05:55;14.70;99.90
9385;DHT22;4732;49.340;10.886;2023-06-26T03:08:22;14.60;99.90
9385;DHT22;4732;49.340;10.886;2023-06-26T03:10:47;14.50;99.90
9385;DHT22;4732;49.340;10.886;2023-06-26T03:13:13;14.60;99.90
9385;DHT22;4732;49.340;10.886;2023-06-26T03:15:38;14.40;99.90
9385;DHT22;4732;49.340;10.886;2023-06-26T03:18:04;14.50;99.90
9385;DHT22;4732;49.340;10.886;2023-06-26T03:20:29;14.50;99.90
9385;DHT22;4732;49.340;10.886;2023-06-26T03:22:55;14.40;99.90
9385;DHT22;4732;49.340;10.886;2023-06-26T03:25:20;14.40;99.90
9385;DHT22;4732;49.340;10.886;2023-06-26T03:27:46;14.40;99.90
9385;DHT22;4732;49.340;10.886;2023-06-26T03:30:12;14.40;99.90
9385;DHT22;4732;49.340;10.886;2023-06-26T03:32:37;14.40;99.90
9385;DHT22;4732;49.340;10.886;2023-06-26T03:35:03;14.40;99.90
9385;DHT22;4732;49.340;10.886;2023-06-26T03:37:28;14.40;99.90
9385;DHT22;4732;49.340;10.886;2023-06-26T03:39:54;14.40;99.90
9385;DHT22;4732;49.340;10.886;2023-06-26T03:42:19;14.30;99.90
9385;DHT22;4732;49.340;10.886;2023-06-26T03:44:45;14.30;99.90
9385;DHT22;4732;49.340;10.886;2023-06-26T03:47:10;14.30;99.90
9385;DHT22;4732;49.340;10.886;2023-06-26T03:49:36;14.30;99.90
9385;DHT22;4732;49.340;10.886;2023-06-26T03:52:01;14.30;99.90
9385;DHT22;4732;49.340;10.886;2023-06-26T03:54:27;14.10;99.90
9385;DHT22;4732;49.340;10.886;2023-06-26T03:56:52;14.30;99.90
9385;DHT22;4732;49.340;10.886;2023-06-26T03:59:18;14.10;99.90
9385;DHT22;4732;49.340;10.886;2023-06-26T04:01:43;14.40;99.90
9385;DHT22;4732;49.340;10.886;2023-06-26T04:04:09;14.40;99.90
9385;DHT22;4732;49.340;10.886;2023-06-26T04:06:34;14.50;99.90
9385;DHT22;4732;49.340;10.886;2023-06-26T04:09:00;14.60;99.90
9385;DHT22;4732;49.340;10.886;2023-06-26T04:11:26;14.60;99.90
9385;DHT22;4732;49.340;10.886;2023-06-26T04:13:52;14.80;99.90
9385;DHT22;4732;49.340;10.886;2023-06-26T04:16:20;14.80;99.90
9385;DHT22;4732;49.340;10.886;2023-06-26T04:18:46;14.90;99.90
9385;DHT22;4732;49.340;10.886;2023-06-26T04:21:12;15.00;99.90
9385;DHT22;4732;49.340;10.886;2023-06-26T04:23:39;15.00;99.90
9385;DHT22;4732;49.340;10.886;2023-06-26T04:26:06;15.20;99.90
9385;DHT22;4732;49.340;10.886;2023-06-26T04:28:35;15.30;99.90
9385;DHT22;4732;49.340;10.886;2023-06-26T04:31:09;15.40;99.90
9385;DHT22;4732;49.340;10.886;2023-06-26T04:33:36;15.40;99.90
9385;DHT22;4732;49.340;10.886;2023-06-26T04:36:03;15.50;99.90
9385;DHT22;4732;49.340;10.886;2023-06-26T04:38:30;15.60;99.90
9385;DHT22;4732;49.340;10.886;2023-06-26T04:40:56;15.70;99.90
9385;DHT22;4732;49.340;10.886;2023-06-26T04:43:21;15.70;99.90
9385;DHT22;4732;49.340;10.886;2023-06-26T04:45:47;15.80;99.90
9385;DHT22;4732;49.340;10.886;2023-06-26T04:48:13;15.80;99.90
9385;DHT22;4732;49.340;10.886;2023-06-26T04:50:39;16.00;99.90
9385;DHT22;4732;49.340;10.886;2023-06-26T04:53:05;16.10;99.90
9385;DHT22;4732;49.340;10.886;2023-06-26T04:55:31;16.30;99.90
9385;DHT22;4732;49.340;10.886;2023-06-26T04:57:56;16.40;99.90
9385;DHT22;4732;49.340;10.886;2023-06-26T05:00:22;16.50;99.90
9385;DHT22;4732;49.340;10.886;2023-06-26T05:02:47;16.60;99.90
9385;DHT22;4732;49.340;10.886;2023-06-26T05:05:13;16.60;99.90
9385;DHT22;4732;49.340;10.886;2023-06-26T05:07:41;16.90;99.90
9385;DHT22;4732;49.340;10.886;2023-06-26T05:10:07;17.00;99.90
9385;DHT22;4732;49.340;10.886;2023-06-26T05:12:33;17.10;99.90
9385;DHT22;4732;49.340;10.886;2023-06-26T05:14:59;17.20;99.90
9385;DHT22;4732;49.340;10.886;2023-06-26T05:17:24;17.30;99.90
9385;DHT22;4732;49.340;10.886;2023-06-26T05:19:50;17.40;99.90
9385;DHT22;4732;49.340;10.886;2023-06-26T05:22:16;17.40;99.90
9385;DHT22;4732;49.340;10.886;2023-06-26T05:24:45;17.60;99.90
9385;DHT22;4732;49.340;10.886;2023-06-26T05:27:12;17.70;99.90
9385;DHT22;4732;49.340;10.886;2023-06-26T05:29:44;17.90;99.90
9385;DHT22;4732;49.340;10.886;2023-06-26T05:32:11;18.00;99.90
9385;DHT22;4732;49.340;10.886;2023-06-26T05:34:38;18.10;99.90
9385;DHT22;4732;49.340;10.886;2023-06-26T05:37:05;18.30;99.90
9385;DHT22;4732;49.340;10.886;2023-06-26T05:39:32;18.40;99.90
9385;DHT22;4732;49.340;10.886;2023-06-26T05:41:58;18.60;99.90
9385;DHT22;4732;49.340;10.886;2023-06-26T05:44:23;18.60;99.90
9385;DHT22;4732;49.340;10.886;2023-06-26T05:46:49;18.80;99.90
9385;DHT22;4732;49.340;10.886;2023-06-26T05:49:15;19.00;99.90
9385;DHT22;4732;49.340;10.886;2023-06-26T05:51:40;19.10;99.90
9385;DHT22;4732;49.340;10.886;2023-06-26T05:54:06;19.20;99.90
9385;DHT22;4732;49.340;10.886;2023-06-26T05:56:32;19.30;99.90
9385;DHT22;4732;49.340;10.886;2023-06-26T05:58:58;19.50;99.90
9385;DHT22;4732;49.340;10.886;2023-06-26T06:01:24;19.70;99.90
9385;DHT22;4732;49.340;10.886;2023-06-26T06:03:49;19.80;99.90
9385;DHT22;4732;49.340;10.886;2023-06-26T06:06:15;20.00;99.90
9385;DHT22;4732;49.340;10.886;2023-06-26T06:08:41;20.10;99.90
9385;DHT22;4732;49.340;10.886;2023-06-26T06:11:07;20.30;99.90
9385;DHT22;4732;49.340;10.886;2023-06-26T06:13:32;20.50;99.90
9385;DHT22;4732;49.340;10.886;2023-06-26T06:15:58;20.70;99.90
9385;DHT22;4732;49.340;10.886;2023-06-26T06:18:23;20.80;99.90
9385;DHT22;4732;49.340;10.886;2023-06-26T06:20:49;21.00;99.90
9385;DHT22;4732;49.340;10.886;2023-06-26T06:23:14;21.20;99.90
9385;DHT22;4732;49.340;10.886;2023-06-26T06:25:40;21.40;99.90
9385;DHT22;4732;49.340;10.886;2023-06-26T06:28:05;21.50;99.90
9385;DHT22;4732;49.340;10.886;2023-06-26T06:30:31;21.80;99.90
9385;DHT22;4732;49.340;10.886;2023-06-26T06:32:58;21.90;99.90
9385;DHT22;4732;49.340;10.886;2023-06-26T06:35:23;22.10;99.90
9385;DHT22;4732;49.340;10.886;2023-06-26T06:37:49;22.20;99.90
9385;DHT22;4732;49.340;10.886;2023-06-26T06:40:15;22.40;99.90
9385;DHT22;4732;49.340;10.886;2023-06-26T06:42:40;22.60;99.90
9385;DHT22;4732;49.340;10.886;2023-06-26T06:45:06;22.80;99.90
9385;DHT22;4732;49.340;10.886;2023-06-26T06:47:32;23.10;99.90
9385;DHT22;4732;49.340;10.886;2023-06-26T06:49:59;23.20;99.90
9385;DHT22;4732;49.340;10.886;2023-06-26T06:52:27;23.50;99.90
9385;DHT22;4732;49.340;10.886;2023-06-26T06:54:56;23.60;99.90
9385;DHT22;4732;49.340;10.886;2023-06-26T06:57:24;23.70;99.90
9385;DHT22;4732;49.340;10.886;2023-06-26T06:59:50;23.90;99.90
9385;DHT22;4732;49.340;10.886;2023-06-26T07:02:19;24.10;99.90
9385;DHT22;4732;49.340;10.886;2023-06-26T07:04:45;24.20;99.90
9385;DHT22;4732;49.340;10.886;2023-06-26T07:07:11;24.40;99.90
9385;DHT22;4732;49.340;10.886;2023-06-26T07:09:38;24.60;99.90
9385;DHT22;4732;49.340;10.886;2023-06-26T07:12:05;24.80;99.90
9385;DHT22;4732;49.340;10.886;2023-06-26T07:14:30;24.90;99.90
9385;DHT22;4732;49.340;10.886;2023-06-26T07:16:56;25.10;99.90
9385;DHT22;4732;49.340;10.886;2023-06-26T07:19:21;25.20;99.90
9385;DHT22;4732;49.340;10.886;2023-06-26T07:21:47;25.30;99.90
9385;DHT22;4732;49.340;10.886;2023-06-26T07:24:12;25.40;99.90
9385;DHT22;4732;49.340;10.886;2023-06-26T07:26:38;25.50;99.50
9385;DHT22;4732;49.340;10.886;2023-06-26T07:29:03;25.60;99.50
9385;DHT22;4732;49.340;10.886;2023-06-26T07:31:29;25.70;99.90
9385;DHT22;4732;49.340;10.886;2023-06-26T07:33:54;25.80;99.90
9385;DHT22;4732;49.340;10.886;2023-06-26T07:36:20;25.80;98.50
9385;DHT22;4732;49.340;10.886;2023-06-26T07:38:45;25.90;99.90
9385;DHT22;4732;49.340;10.886;2023-06-26T07:41:11;26.00;99.30
9385;DHT22;4732;49.340;10.886;2023-06-26T07:43:36;26.10;99.90
9385;DHT22;4732;49.340;10.886;2023-06-26T07:46:02;26.30;99.90
9385;DHT22;4732;49.340;10.886;2023-06-26T07:48:27;26.40;99.70
9385;DHT22;4732;49.340;10.886;2023-06-26T07:50:53;26.50;99.20
9385;DHT22;4732;49.340;10.886;2023-06-26T07:53:19;26.60;99.90
9385;DHT22;4732;49.340;10.886;2023-06-26T07:55:45;26.70;99.20
9385;DHT22;4732;49.340;10.886;2023-06-26T07:58:10;26.80;98.80
9385;DHT22;4732;49.340;10.886;2023-06-26T08:00:36;26.90;98.80
9385;DHT22;4732;49.340;10.886;2023-06-26T08:03:02;26.90;96.80
9385;DHT22;4732;49.340;10.886;2023-06-26T08:05:27;26.90;97.20
9385;DHT22;4732;49.340;10.886;2023-06-26T08:07:53;27.00;98.60
9385;DHT22;4732;49.340;10.886;2023-06-26T08:10:18;27.20;98.50
9385;DHT22;4732;49.340;10.886;2023-06-26T08:12:44;27.20;99.10
9385;DHT22;4732;49.340;10.886;2023-06-26T08:15:11;27.40;98.70
9385;DHT22;4732;49.340;10.886;2023-06-26T08:17:37;27.40;97.70
9385;DHT22;4732;49.340;10.886;2023-06-26T08:20:04;27.50;98.10
9385;DHT22;4732;49.340;10.886;2023-06-26T08:22:30;27.60;97.00
9385;DHT22;4732;49.340;10.886;2023-06-26T08:24:55;27.70;97.40
9385;DHT22;4732;49.340;10.886;2023-06-26T08:27:21;27.80;97.70
9385;DHT22;4732;49.340;10.886;2023-06-26T08:29:46;27.90;98.50
9385;DHT22;4732;49.340;10.886;2023-06-26T08:32:12;28.10;97.70
9385;DHT22;4732;49.340;10.886;2023-06-26T08:34:37;28.20;97.90
9385;DHT22;4732;49.340;10.886;2023-06-26T08:37:03;28.30;97.20
9385;DHT22;4732;49.340;10.886;2023-06-26T08:39:29;28.40;97.50
9385;DHT22;4732;49.340;10.886;2023-06-26T08:41:54;28.50;95.80
9385;DHT22;4732;49.340;10.886;2023-06-26T08:44:20;28.40;94.50
9385;DHT22;4732;49.340;10.886;2023-06-26T08:46:50;28.50;95.50
9385;DHT22;4732;49.340;10.886;2023-06-26T08:49:21;28.50;94.10
9385;DHT22;4732;49.340;10.886;2023-06-26T08:52:02;28.60;95.50
9385;DHT22;4732;49.340;10.886;2023-06-26T08:54:34;28.70;95.90
9385;DHT22;4732;49.340;10.886;2023-06-26T08:57:01;28.90;96.00
9385;DHT22;4732;49.340;10.886;2023-06-26T08:59:27;29.10;96.10
9385;DHT22;4732;49.340;10.886;2023-06-26T09:01:53;29.20;95.90
9385;DHT22;4732;49.340;10.886;2023-06-26T09:04:19;29.30;93.70
9385;DHT22;4732;49.340;10.886;2023-06-26T09:06:44;29.40;95.10
9385;DHT22;4732;49.340;10.886;2023-06-26T09:09:10;29.50;93.70
9385;DHT22;4732;49.340;10.886;2023-06-26T09:11:36;29.60;92.00
9385;DHT22;4732;49.340;10.886;2023-06-26T09:14:01;29.50;94.60
9385;DHT22;4732;49.340;10.886;2023-06-26T09:16:30;29.60;93.70
9385;DHT22;4732;49.340;10.886;2023-06-26T09:18:56;29.80;93.70
9385;DHT22;4732;49.340;10.886;2023-06-26T09:21:22;29.80;93.30
9385;DHT22;4732;49.340;10.886;2023-06-26T09:23:50;29.80;92.60
9385;DHT22;4732;49.340;10.886;2023-06-26T09:26:16;29.90;91.70
9385;DHT22;4732;49.340;10.886;2023-06-26T09:28:42;29.90;90.60
9385;DHT22;4732;49.340;10.886;2023-06-26T09:31:08;29.80;90.30
9385;DHT22;4732;49.340;10.886;2023-06-26T09:33:36;29.90;91.70
9385;DHT22;4732;49.340;10.886;2023-06-26T09:36:09;30.00;91.70
9385;DHT22;4732;49.340;10.886;2023-06-26T09:38:37;30.10;91.10
9385;DHT22;4732;49.340;10.886;2023-06-26T09:41:03;30.20;90.60
9385;DHT22;4732;49.340;10.886;2023-06-26T09:43:28;30.20;89.50
9385;DHT22;4732;49.340;10.886;2023-06-26T09:45:56;30.10;91.00
9385;DHT22;4732;49.340;10.886;2023-06-26T09:48:21;30.40;91.70
9385;DHT22;4732;49.340;10.886;2023-06-26T09:50:47;30.30;88.40
9385;DHT22;4732;49.340;10.886;2023-06-26T09:53:13;30.50;90.60
9385;DHT22;4732;49.340;10.886;2023-06-26T09:55:39;30.60;88.60
9385;DHT22;4732;49.340;10.886;2023-06-26T09:58:06;30.60;87.60
9385;DHT22;4732;49.340;10.886;2023-06-26T10:00:32;30.60;87.90
9385;DHT22;4732;49.340;10.886;2023-06-26T10:02:58;30.70;86.70
9385;DHT22;4732;49.340;10.886;2023-06-26T10:05:24;30.70;88.00
9385;DHT22;4732;49.340;10.886;2023-06-26T10:07:50;30.80;84.80
9385;DHT22;4732;49.340;10.886;2023-06-26T10:10:16;30.90;85.20
9385;DHT22;4732;49.340;10.886;2023-06-26T10:12:43;31.00;83.20
9385;DHT22;4732;49.340;10.886;2023-06-26T10:15:11;31.20;84.60
9385;DHT22;4732;49.340;10.886;2023-06-26T10:17:41;31.20;82.70
9385;DHT22;4732;49.340;10.886;2023-06-26T10:20:08;31.20;77.80
9385;DHT22;4732;49.340;10.886;2023-06-26T10:22:40;31.30;77.90
9385;DHT22;4732;49.340;10.886;2023-06-26T10:25:07;31.40;75.10
9385;DHT22;4732;49.340;10.886;2023-06-26T10:27:37;31.20;77.60
9385;DHT22;4732;49.340;10.886;2023-06-26T10:30:09;31.30;76.20
9385;DHT22;4732;49.340;10.886;2023-06-26T10:32:35;31.50;80.60
9385;DHT22;4732;49.340;10.886;2023-06-26T10:35:02;31.70;78.50
9385;DHT22;4732;49.340;10.886;2023-06-26T10:37:42;31.70;78.70
9385;DHT22;4732;49.340;10.886;2023-06-26T10:40:11;31.90;77.90
9385;DHT22;4732;49.340;10.886;2023-06-26T10:42:38;32.10;79.60
9385;DHT22;4732;49.340;10.886;2023-06-26T10:45:14;32.20;76.60
9385;DHT22;4732;49.340;10.886;2023-06-26T10:47:41;32.20;76.80
9385;DHT22;4732;49.340;10.886;2023-06-26T10:50:29;32.20;73.90
9385;DHT22;4732;49.340;10.886;2023-06-26T10:53:22;32.30;73.00
9385;DHT22;4732;49.340;10.886;2023-06-26T10:56:05;32.30;74.80
9385;DHT22;4732;49.340;10.886;2023-06-26T11:03:40;32.60;76.00
9385;DHT22;4732;49.340;10.886;2023-06-26T11:06:24;32.80;77.10
9385;DHT22;4732;49.340;10.886;2023-06-26T11:08:51;33.00;75.70
9385;DHT22;4732;49.340;10.886;2023-06-26T11:11:21;33.10;72.20
9385;DHT22;4732;49.340;10.886;2023-06-26T11:13:47;33.00;72.30
9385;DHT22;4732;49.340;10.886;2023-06-26T11:16:14;33.00;72.80
9385;DHT22;4732;49.340;10.886;2023-06-26T11:18:40;32.90;70.70
9385;DHT22;4732;49.340;10.886;2023-06-26T11:21:10;32.90;73.70
9385;DHT22;4732;49.340;10.886;2023-06-26T11:23:37;33.00;74.80
9385;DHT22;4732;49.340;10.886;2023-06-26T11:26:17;33.20;73.40
9385;DHT22;4732;49.340;10.886;2023-06-26T11:28:55;32.70;68.90
9385;DHT22;4732;49.340;10.886;2023-06-26T11:31:28;32.90;73.90
9385;DHT22;4732;49.340;10.886;2023-06-26T11:33:58;33.00;74.30
9385;DHT22;4732;49.340;10.886;2023-06-26T11:36:28;32.80;72.00
9385;DHT22;4732;49.340;10.886;2023-06-26T11:38:59;32.60;72.50
9385;DHT22;4732;49.340;10.886;2023-06-26T11:41:29;32.90;72.50
9385;DHT22;4732;49.340;10.886;2023-06-26T11:43:55;33.20;72.70
9385;DHT22;4732;49.340;10.886;2023-06-26T11:46:21;32.90;69.30
9385;DHT22;4732;49.340;10.886;2023-06-26T11:48:48;32.50;72.70
9385;DHT22;4732;49.340;10.886;2023-06-26T11:51:15;32.60;73.80
9385;DHT22;4732;49.340;10.886;2023-06-26T11:53:41;32.80;74.40
9385;DHT22;4732;49.340;10.886;2023-06-26T11:56:12;32.90;72.00
9385;DHT22;4732;49.340;10.886;2023-06-26T11:59:01;33.10;71.00
9385;DHT22;4732;49.340;10.886;2023-06-26T12:01:33;33.30;69.30
9385;DHT22;4732;49.340;10.886;2023-06-26T12:04:01;33.40;67.10
9385;DHT22;4732;49.340;10.886;2023-06-26T12:06:28;33.30;70.00
9385;DHT22;4732;49.340;10.886;2023-06-26T12:08:54;33.70;69.50
9385;DHT22;4732;49.340;10.886;2023-06-26T12:11:23;34.00;69.00
9385;DHT22;4732;49.340;10.886;2023-06-26T12:13:49;34.10;69.10
9385;DHT22;4732;49.340;10.886;2023-06-26T12:16:15;34.20;70.90
9385;DHT22;4732;49.340;10.886;2023-06-26T12:18:40;34.40;71.40
9385;DHT22;4732;49.340;10.886;2023-06-26T12:21:06;34.20;66.20
9385;DHT22;4732;49.340;10.886;2023-06-26T12:23:33;34.00;64.50
9385;DHT22;4732;49.340;10.886;2023-06-26T12:25:59;34.30;67.90
9385;DHT22;4732;49.340;10.886;2023-06-26T12:28:24;34.60;71.50
9385;DHT22;4732;49.340;10.886;2023-06-26T12:31:13;34.70;67.90
9385;DHT22;4732;49.340;10.886;2023-06-26T12:33:38;34.10;66.10
9385;DHT22;4732;49.340;10.886;2023-06-26T12:36:04;34.00;69.10
9385;DHT22;4732;49.340;10.886;2023-06-26T12:38:33;33.80;68.30
9385;DHT22;4732;49.340;10.886;2023-06-26T12:40:59;33.90;69.20
9385;DHT22;4732;49.340;10.886;2023-06-26T12:43:26;34.10;69.90
9385;DHT22;4732;49.340;10.886;2023-06-26T12:45:57;34.10;67.00
9385;DHT22;4732;49.340;10.886;2023-06-26T12:48:39;34.10;68.10
9385;DHT22;4732;49.340;10.886;2023-06-26T12:51:17;33.40;69.30
9385;DHT22;4732;49.340;10.886;2023-06-26T12:53:43;32.90;71.90
9385;DHT22;4732;49.340;10.886;2023-06-26T12:56:09;32.60;72.70
9385;DHT22;4732;49.340;10.886;2023-06-26T12:58:36;32.40;72.10
9385;DHT22;4732;49.340;10.886;2023-06-26T13:01:07;32.70;75.80
9385;DHT22;4732;49.340;10.886;2023-06-26T13:03:45;32.90;75.40
9385;DHT22;4732;49.340;10.886;2023-06-26T13:06:11;33.40;74.80
9385;DHT22;4732;49.340;10.886;2023-06-26T13:08:37;33.70;71.80
9385;DHT22;4732;49.340;10.886;2023-06-26T13:11:02;33.70;72.80
9385;DHT22;4732;49.340;10.886;2023-06-26T13:13:28;33.50;70.40
9385;DHT22;4732;49.340;10.886;2023-06-26T13:15:54;34.00;72.40
9385;DHT22;4732;49.340;10.886;2023-06-26T13:18:19;34.30;71.50
9385;DHT22;4732;49.340;10.886;2023-06-26T13:20:45;34.00;72.40
9385;DHT22;4732;49.340;10.886;2023-06-26T13:23:11;34.00;72.00
9385;DHT22;4732;49.340;10.886;2023-06-26T13:25:36;33.70;72.00
9385;DHT22;4732;49.340;10.886;2023-06-26T13:28:02;33.40;71.60
9385;DHT22;4732;49.340;10.886;2023-06-26T13:30:27;33.20;70.30
9385;DHT22;4732;49.340;10.886;2023-06-26T13:32:55;33.30;72.90
9385;DHT22;4732;49.340;10.886;2023-06-26T13:35:24;33.60;75.50
9385;DHT22;4732;49.340;10.886;2023-06-26T13:37:49;33.80;75.20
9385;DHT22;4732;49.340;10.886;2023-06-26T13:40:15;34.10;76.70
9385;DHT22;4732;49.340;10.886;2023-06-26T13:42:40;34.20;76.80
9385;DHT22;4732;49.340;10.886;2023-06-26T13:45:06;34.10;74.20
9385;DHT22;4732;49.340;10.886;2023-06-26T13:47:32;34.40;74.40
9385;DHT22;4732;49.340;10.886;2023-06-26T13:49:59;34.50;76.40
9385;DHT22;4732;49.340;10.886;2023-06-26T13:52:25;34.60;75.10
9385;DHT22;4732;49.340;10.886;2023-06-26T13:54:50;34.20;72.80
9385;DHT22;4732;49.340;10.886;2023-06-26T13:57:17;34.30;73.10
9385;DHT22;4732;49.340;10.886;2023-06-26T13:59:42;34.20;73.40
9385;DHT22;4732;49.340;10.886;2023-06-26T14:02:08;34.30;72.50
9385;DHT22;4732;49.340;10.886;2023-06-26T14:04:34;34.50;72.80
9385;DHT22;4732;49.340;10.886;2023-06-26T14:06:59;34.50;73.20
9385;DHT22;4732;49.340;10.886;2023-06-26T14:09:25;34.60;72.90
9385;DHT22;4732;49.340;10.886;2023-06-26T14:11:50;34.60;73.50
9385;DHT22;4732;49.340;10.886;2023-06-26T14:14:16;34.50;72.80
9385;DHT22;4732;49.340;10.886;2023-06-26T14:16:42;33.80;72.10
9385;DHT22;4732;49.340;10.886;2023-06-26T14:19:07;33.80;74.50
9385;DHT22;4732;49.340;10.886;2023-06-26T14:21:34;34.10;76.00
9385;DHT22;4732;49.340;10.886;2023-06-26T14:24:00;33.70;74.10
9385;DHT22;4732;49.340;10.886;2023-06-26T14:26:25;33.10;74.90
9385;DHT22;4732;49.340;10.886;2023-06-26T14:28:51;32.40;74.80
9385;DHT22;4732;49.340;10.886;2023-06-26T14:31:17;31.80;77.40
9385;DHT22;4732;49.340;10.886;2023-06-26T14:33:42;32.20;79.20
9385;DHT22;4732;49.340;10.886;2023-06-26T14:36:08;32.90;80.30
9385;DHT22;4732;49.340;10.886;2023-06-26T14:38:33;33.30;79.20
9385;DHT22;4732;49.340;10.886;2023-06-26T14:40:59;33.30;78.10
9385;DHT22;4732;49.340;10.886;2023-06-26T14:43:24;33.50;79.50
9385;DHT22;4732;49.340;10.886;2023-06-26T14:45:50;33.80;79.20
9385;DHT22;4732;49.340;10.886;2023-06-26T14:48:15;33.80;78.20
9385;DHT22;4732;49.340;10.886;2023-06-26T14:50:41;33.60;78.00
9385;DHT22;4732;49.340;10.886;2023-06-26T14:53:06;33.60;80.70
9385;DHT22;4732;49.340;10.886;2023-06-26T14:55:32;33.80;79.60
9385;DHT22;4732;49.340;10.886;2023-06-26T14:57:57;33.90;80.30
9385;DHT22;4732;49.340;10.886;2023-06-26T15:00:26;34.00;78.70
9385;DHT22;4732;49.340;10.886;2023-06-26T15:02:52;33.80;79.00
9385;DHT22;4732;49.340;10.886;2023-06-26T15:05:19;33.20;79.70
9385;DHT22;4732;49.340;10.886;2023-06-26T15:07:46;33.30;80.20
9385;DHT22;4732;49.340;10.886;2023-06-26T15:10:12;32.70;80.30
9385;DHT22;4732;49.340;10.886;2023-06-26T15:12:37;32.30;81.90
9385;DHT22;4732;49.340;10.886;2023-06-26T15:15:04;32.40;82.90
9385;DHT22;4732;49.340;10.886;2023-06-26T15:17:29;32.60;83.50
9385;DHT22;4732;49.340;10.886;2023-06-26T15:19:55;32.70;83.80
9385;DHT22;4732;49.340;10.886;2023-06-26T15:22:22;32.60;81.40
9385;DHT22;4732;49.340;10.886;2023-06-26T15:24:48;32.60;83.10
9385;DHT22;4732;49.340;10.886;2023-06-26T15:27:13;32.40;83.60
9385;DHT22;4732;49.340;10.886;2023-06-26T15:29:39;32.60;83.00
9385;DHT22;4732;49.340;10.886;2023-06-26T15:32:05;32.60;84.20
9385;DHT22;4732;49.340;10.886;2023-06-26T15:34:30;32.50;84.00
9385;DHT22;4732;49.340;10.886;2023-06-26T15:36:56;31.90;84.80
9385;DHT22;4732;49.340;10.886;2023-06-26T15:39:21;31.90;85.60
9385;DHT22;4732;49.340;10.886;2023-06-26T15:41:47;31.60;85.00
9385;DHT22;4732;49.340;10.886;2023-06-26T15:44:13;31.70;87.80
9385;DHT22;4732;49.340;10.886;2023-06-26T15:46:38;31.60;87.40
9385;DHT22;4732;49.340;10.886;2023-06-26T15:49:04;31.70;85.70
9385;DHT22;4732;49.340;10.886;2023-06-26T15:51:29;31.60;87.70
9385;DHT22;4732;49.340;10.886;2023-06-26T15:53:56;31.30;86.10
9385;DHT22;4732;49.340;10.886;2023-06-26T15:56:22;31.40;88.20
9385;DHT22;4732;49.340;10.886;2023-06-26T15:58:48;31.70;87.70
9385;DHT22;4732;49.340;10.886;2023-06-26T16:01:14;31.70;87.70
9385;DHT22;4732;49.340;10.886;2023-06-26T16:03:39;31.80;88.60
9385;DHT22;4732;49.340;10.886;2023-06-26T16:06:06;31.60;88.40
9385;DHT22;4732;49.340;10.886;2023-06-26T16:08:31;31.60;86.20
9385;DHT22;4732;49.340;10.886;2023-06-26T16:10:57;31.70;86.90
9385;DHT22;4732;49.340;10.886;2023-06-26T16:13:22;31.40;82.30
9385;DHT22;4732;49.340;10.886;2023-06-26T16:15:48;30.60;83.20
9385;DHT22;4732;49.340;10.886;2023-06-26T16:18:14;30.60;84.50
9385;DHT22;4732;49.340;10.886;2023-06-26T16:20:40;30.70;85.30
9385;DHT22;4732;49.340;10.886;2023-06-26T16:23:06;30.50;86.00
9385;DHT22;4732;49.340;10.886;2023-06-26T16:25:32;30.50;86.60
9385;DHT22;4732;49.340;10.886;2023-06-26T16:27:58;30.10;84.20
9385;DHT22;4732;49.340;10.886;2023-06-26T16:30:23;29.90;85.70
9385;DHT22;4732;49.340;10.886;2023-06-26T16:32:49;29.80;86.30
9385;DHT22;4732;49.340;10.886;2023-06-26T16:35:14;29.90;86.20
9385;DHT22;4732;49.340;10.886;2023-06-26T16:37:40;30.00;86.20
9385;DHT22;4732;49.340;10.886;2023-06-26T16:40:06;30.30;86.50
9385;DHT22;4732;49.340;10.886;2023-06-26T16:42:31;30.70;86.90
9385;DHT22;4732;49.340;10.886;2023-06-26T16:44:57;30.90;85.30
9385;DHT22;4732;49.340;10.886;2023-06-26T16:47:22;30.90;85.00
9385;DHT22;4732;49.340;10.886;2023-06-26T16:49:48;30.60;84.40
9385;DHT22;4732;49.340;10.886;2023-06-26T16:52:13;30.30;83.30
9385;DHT22;4732;49.340;10.886;2023-06-26T16:54:39;30.20;85.20
9385;DHT22;4732;49.340;10.886;2023-06-26T16:57:04;29.80;84.10
9385;DHT22;4732;49.340;10.886;2023-06-26T16:59:30;29.30;84.10
9385;DHT22;4732;49.340;10.886;2023-06-26T17:01:56;29.20;86.20
9385;DHT22;4732;49.340;10.886;2023-06-26T17:04:27;29.20;85.60
9385;DHT22;4732;49.340;10.886;2023-06-26T17:06:52;29.00;86.40
9385;DHT22;4732;49.340;10.886;2023-06-26T17:09:18;29.20;87.40
9385;DHT22;4732;49.340;10.886;2023-06-26T17:11:43;29.20;85.70
9385;DHT22;4732;49.340;10.886;2023-06-26T17:14:09;29.10;86.80
9385;DHT22;4732;49.340;10.886;2023-06-26T17:16:34;29.10;87.10
9385;DHT22;4732;49.340;10.886;2023-06-26T17:19:00;29.00;85.40
9385;DHT22;4732;49.340;10.886;2023-06-26T17:21:26;28.90;85.90
9385;DHT22;4732;49.340;10.886;2023-06-26T17:23:51;28.90;85.40
9385;DHT22;4732;49.340;10.886;2023-06-26T17:26:17;28.60;85.00
9385;DHT22;4732;49.340;10.886;2023-06-26T17:28:44;28.50;85.80
9385;DHT22;4732;49.340;10.886;2023-06-26T17:31:10;28.50;86.60
9385;DHT22;4732;49.340;10.886;2023-06-26T17:33:35;28.40;85.30
9385;DHT22;4732;49.340;10.886;2023-06-26T17:36:01;28.30;85.80
9385;DHT22;4732;49.340;10.886;2023-06-26T17:38:27;28.30;87.00
9385;DHT22;4732;49.340;10.886;2023-06-26T17:40:53;28.40;87.70
9385;DHT22;4732;49.340;10.886;2023-06-26T17:43:19;28.30;89.20
9385;DHT22;4732;49.340;10.886;2023-06-26T17:45:45;28.20;90.00
9385;DHT22;4732;49.340;10.886;2023-06-26T17:48:10;28.10;90.60
9385;DHT22;4732;49.340;10.886;2023-06-26T17:50:36;28.00;90.10
9385;DHT22;4732;49.340;10.886;2023-06-26T17:53:02;27.90;90.70
9385;DHT22;4732;49.340;10.886;2023-06-26T17:55:28;27.80;90.50
9385;DHT22;4732;49.340;10.886;2023-06-26T17:57:53;27.70;91.00
9385;DHT22;4732;49.340;10.886;2023-06-26T18:00:19;27.50;90.70
9385;DHT22;4732;49.340;10.886;2023-06-26T18:02:45;27.50;90.80
9385;DHT22;4732;49.340;10.886;2023-06-26T18:05:11;27.30;91.30
9385;DHT22;4732;49.340;10.886;2023-06-26T18:07:36;27.30;91.40
9385;DHT22;4732;49.340;10.886;2023-06-26T18:10:04;27.20;91.30
9385;DHT22;4732;49.340;10.886;2023-06-26T18:12:30;27.10;91.60
9385;DHT22;4732;49.340;10.886;2023-06-26T18:14:56;27.00;91.80
9385;DHT22;4732;49.340;10.886;2023-06-26T18:17:21;26.90;92.20
9385;DHT22;4732;49.340;10.886;2023-06-26T18:19:47;26.80;92.10
9385;DHT22;4732;49.340;10.886;2023-06-26T18:22:13;26.70;92.70
9385;DHT22;4732;49.340;10.886;2023-06-26T18:24:38;26.60;93.00
9385;DHT22;4732;49.340;10.886;2023-06-26T18:27:04;26.60;92.90
9385;DHT22;4732;49.340;10.886;2023-06-26T18:29:30;26.50;93.10
9385;DHT22;4732;49.340;10.886;2023-06-26T18:31:56;26.40;93.50
9385;DHT22;4732;49.340;10.886;2023-06-26T18:34:21;26.30;93.60
9385;DHT22;4732;49.340;10.886;2023-06-26T18:36:47;26.30;93.90
9385;DHT22;4732;49.340;10.886;2023-06-26T18:39:13;26.20;94.20
9385;DHT22;4732;49.340;10.886;2023-06-26T18:41:39;26.10;94.20
9385;DHT22;4732;49.340;10.886;2023-06-26T18:44:05;26.00;93.90
9385;DHT22;4732;49.340;10.886;2023-06-26T18:46:32;26.00;94.00